createdAt,value
2017-10-30T00:03:59.289Z,7.20
2017-10-30T00:09:03.244Z,6.90
2017-10-30T00:14:06.420Z,6.90
2017-10-30T00:19:09.634Z,6.90
2017-10-30T00:24:12.810Z,6.90
2017-10-30T00:29:16.150Z,6.90
2017-10-30T00:34:19.366Z,6.80
2017-10-30T00:39:22.556Z,7.00
2017-10-30T00:44:26.510Z,6.80
2017-10-30T00:49:30.665Z,6.70
2017-10-30T00:54:33.851Z,6.80
2017-10-30T00:59:37.045Z,6.70
2017-10-30T01:04:40.421Z,6.80
2017-10-30T01:09:43.783Z,6.70
2017-10-30T01:14:46.941Z,6.70
2017-10-30T01:19:50.868Z,6.70
2017-10-30T01:24:54.818Z,6.60
2017-10-30T01:29:58.119Z,6.50
2017-10-30T01:35:01.365Z,6.40
2017-10-30T01:40:04.543Z,6.40
2017-10-30T01:45:07.722Z,6.30
2017-10-30T01:50:11.639Z,6.30
2017-10-30T01:55:15.607Z,6.20
2017-10-30T02:00:18.768Z,6.20
2017-10-30T02:05:21.974Z,6.40
2017-10-30T02:10:25.911Z,6.50
2017-10-30T02:15:29.089Z,6.40
2017-10-30T02:20:32.250Z,6.50
2017-10-30T02:25:35.509Z,6.60
2017-10-30T02:30:39.447Z,6.60
2017-10-30T02:35:43.383Z,6.60
2017-10-30T02:40:46.621Z,6.60
2017-10-30T02:45:49.988Z,6.50
2017-10-30T02:50:53.161Z,6.50
2017-10-30T02:55:56.335Z,6.50
2017-10-30T03:00:59.490Z,6.70
2017-10-30T03:06:02.634Z,6.60
2017-10-30T03:11:05.810Z,6.50
2017-10-30T03:16:09.752Z,6.30
2017-10-30T03:21:12.925Z,6.20
2017-10-30T03:26:16.886Z,6.20
2017-10-30T03:31:20.063Z,6.10
2017-10-30T03:36:24.008Z,6.20
2017-10-30T03:41:27.285Z,6.10
2017-10-30T03:46:31.250Z,5.80
2017-10-30T03:51:34.427Z,5.80
2017-10-30T03:56:38.400Z,5.80
2017-10-30T04:01:41.570Z,5.70
2017-10-30T04:06:44.752Z,5.60
2017-10-30T04:11:48.698Z,5.70
2017-10-30T04:16:51.872Z,5.70
2017-10-30T04:21:55.042Z,5.70
2017-10-30T04:26:58.221Z,5.70
2017-10-30T04:32:01.421Z,5.60
2017-10-30T04:37:04.600Z,5.50
2017-10-30T04:42:07.794Z,5.40
2017-10-30T04:47:10.969Z,5.50
2017-10-30T04:52:14.164Z,5.40
2017-10-30T04:57:17.329Z,5.50
2017-10-30T05:02:21.285Z,5.70
2017-10-30T05:07:24.481Z,5.70
2017-10-30T05:12:27.663Z,5.80
2017-10-30T05:17:31.644Z,5.80
2017-10-30T05:22:34.829Z,5.80
2017-10-30T05:27:38.007Z,5.80
2017-10-30T05:32:41.950Z,5.80
2017-10-30T05:37:45.151Z,5.80
2017-10-30T05:42:48.355Z,5.80
2017-10-30T05:47:51.528Z,5.80
2017-10-30T05:52:54.732Z,5.90
2017-10-30T05:57:57.896Z,5.80
2017-10-30T06:03:01.092Z,5.90
2017-10-30T06:08:04.337Z,6.00
2017-10-30T06:13:07.527Z,6.10
2017-10-30T06:18:10.798Z,6.20
2017-10-30T06:23:14.041Z,6.30
2017-10-30T06:28:17.236Z,6.40
2017-10-30T06:33:20.436Z,6.40
2017-10-30T06:38:23.636Z,6.40
2017-10-30T06:43:26.793Z,6.40
2017-10-30T06:48:30.073Z,6.40
2017-10-30T06:53:33.254Z,6.40
2017-10-30T06:58:36.605Z,6.40
2017-10-30T07:03:39.953Z,6.50
2017-10-30T07:08:43.909Z,6.70
2017-10-30T07:13:47.124Z,6.70
2017-10-30T07:18:50.333Z,6.70
2017-10-30T07:23:53.495Z,6.80
2017-10-30T07:28:57.446Z,6.80
2017-10-30T07:34:00.668Z,6.80
2017-10-30T07:39:03.849Z,7.20
2017-10-30T07:44:07.108Z,7.70
2017-10-30T07:49:10.300Z,7.50
2017-10-30T07:54:13.510Z,7.60
2017-10-30T07:59:16.761Z,7.70
2017-10-30T08:04:20.698Z,7.90
2017-10-30T08:09:24.058Z,7.90
2017-10-30T08:14:27.233Z,7.80
2017-10-30T08:19:30.441Z,7.70
2017-10-30T08:24:33.624Z,7.80
2017-10-30T08:29:36.805Z,8.00
2017-10-30T08:34:40.746Z,7.80
2017-10-30T08:39:44.725Z,7.90
2017-10-30T08:44:47.984Z,7.90
2017-10-30T08:49:51.918Z,7.80
2017-10-30T08:54:55.085Z,7.90
2017-10-30T08:59:59.584Z,7.90
2017-10-30T09:05:02.764Z,7.90
2017-10-30T09:10:05.929Z,8.00
2017-10-30T09:15:09.168Z,8.20
2017-10-30T09:20:12.404Z,8.50
2017-10-30T09:25:15.669Z,8.50
2017-10-30T09:30:19.734Z,8.60
2017-10-30T09:35:22.895Z,8.60
2017-10-30T09:40:26.879Z,8.60
2017-10-30T09:45:30.038Z,8.50
2017-10-30T09:50:33.205Z,8.80
2017-10-30T09:55:36.371Z,8.90
2017-10-30T10:00:39.583Z,9.00
2017-10-30T10:05:42.756Z,9.10
2017-10-30T10:10:46.765Z,9.00
2017-10-30T10:15:50.103Z,9.00
2017-10-30T10:20:53.299Z,9.00
2017-10-30T10:25:56.665Z,9.00
2017-10-30T10:30:59.864Z,9.10
2017-10-30T10:36:03.049Z,9.20
2017-10-30T10:41:06.325Z,9.30
2017-10-30T10:46:10.266Z,9.50
2017-10-30T10:51:13.463Z,9.50
2017-10-30T10:56:17.401Z,9.40
2017-10-30T11:01:20.575Z,9.40
2017-10-30T11:06:24.503Z,9.80
2017-10-30T11:11:28.470Z,10.10
2017-10-30T11:16:31.674Z,10.00
2017-10-30T11:21:34.915Z,10.20
2017-10-30T11:26:38.113Z,10.10
2017-10-30T11:31:41.302Z,10.10
2017-10-30T11:36:44.623Z,10.00
2017-10-30T11:41:47.797Z,10.00
2017-10-30T11:46:50.990Z,9.90
2017-10-30T11:51:54.949Z,10.60
2017-10-30T11:56:58.287Z,10.60
2017-10-30T12:02:01.487Z,10.70
2017-10-30T12:07:04.723Z,10.70
2017-10-30T12:12:07.962Z,10.70
2017-10-30T12:17:11.242Z,10.70
2017-10-30T12:22:15.198Z,10.60
2017-10-30T12:27:18.404Z,10.60
2017-10-30T12:32:21.736Z,10.80
2017-10-30T12:37:24.946Z,10.80
2017-10-30T12:42:28.140Z,10.60
2017-10-30T12:47:31.360Z,10.60
2017-10-30T12:52:34.570Z,10.50
2017-10-30T12:57:37.846Z,10.90
2017-10-30T13:02:41.034Z,11.00
2017-10-30T13:07:44.353Z,11.20
2017-10-30T13:12:47.570Z,11.20
2017-10-30T13:17:50.783Z,10.90
2017-10-30T13:22:54.002Z,11.10
2017-10-30T13:27:57.220Z,11.10
2017-10-30T13:33:00.402Z,11.10
2017-10-30T13:38:03.590Z,11.00
2017-10-30T13:43:06.784Z,10.90
2017-10-30T13:48:10.036Z,10.90
2017-10-30T13:53:13.585Z,10.90
2017-10-30T13:58:17.017Z,10.90
2017-10-30T14:03:20.460Z,10.90
2017-10-30T14:08:23.784Z,10.80
2017-10-30T14:13:27.003Z,10.80
2017-10-30T14:18:30.355Z,10.80
2017-10-30T14:23:33.617Z,10.70
2017-10-30T14:28:36.894Z,10.70
2017-10-30T14:33:40.126Z,10.90
2017-10-30T14:38:43.330Z,10.70
2017-10-30T14:43:46.764Z,10.40
2017-10-30T14:48:49.922Z,10.50
2017-10-30T14:53:53.213Z,10.50
2017-10-30T14:58:56.422Z,10.50
2017-10-30T15:03:59.680Z,10.40
2017-10-30T15:09:02.875Z,10.40
2017-10-30T15:14:06.128Z,10.40
2017-10-30T15:19:10.093Z,10.20
2017-10-30T15:24:13.271Z,10.20
2017-10-30T15:29:16.630Z,10.10
2017-10-30T15:34:19.809Z,10.10
2017-10-30T15:39:22.997Z,10.00
2017-10-30T15:44:26.202Z,9.80
2017-10-30T15:49:29.390Z,9.80
2017-10-30T15:54:32.697Z,9.70
2017-10-30T15:59:36.653Z,9.80
2017-10-30T16:04:39.890Z,9.80
2017-10-30T16:09:43.161Z,9.70
2017-10-30T16:14:46.513Z,9.80
2017-10-30T16:19:49.762Z,9.80
2017-10-30T16:24:53.154Z,9.80
2017-10-30T16:29:56.529Z,9.80
2017-10-30T16:34:59.744Z,9.70
2017-10-30T16:40:03.076Z,9.80
2017-10-30T16:45:07.141Z,9.70
2017-10-30T16:50:10.389Z,9.80
2017-10-30T16:55:13.585Z,9.70
2017-10-30T17:00:16.769Z,9.60
2017-10-30T17:05:20.051Z,9.60
2017-10-30T17:10:24.019Z,9.50
2017-10-30T17:15:27.416Z,9.50
2017-10-30T17:20:31.420Z,9.50
2017-10-30T17:25:34.829Z,9.40
2017-10-30T17:30:39.602Z,9.40
2017-10-30T17:35:42.802Z,9.40
2017-10-30T17:41:12.165Z,9.30
2017-10-30T17:46:15.367Z,9.10
2017-10-30T17:51:18.563Z,9.20
2017-10-30T17:56:21.778Z,9.20
2017-10-30T18:01:24.975Z,9.20
2017-10-30T18:06:28.189Z,9.10
2017-10-30T18:11:31.362Z,9.10
2017-10-30T18:16:34.560Z,9.10
2017-10-30T18:21:37.772Z,9.00
2017-10-30T18:26:40.968Z,8.90
2017-10-30T18:31:44.188Z,8.90
2017-10-30T18:36:47.386Z,8.90
2017-10-30T18:41:50.588Z,8.90
2017-10-30T18:46:53.802Z,8.80
2017-10-30T18:51:56.979Z,8.70
2017-10-30T18:57:00.146Z,8.40
2017-10-30T19:02:03.297Z,8.30
2017-10-30T19:07:06.501Z,8.20
2017-10-30T19:12:09.690Z,8.00
2017-10-30T19:17:12.893Z,7.80
2017-10-30T19:22:16.125Z,7.70
2017-10-30T19:27:19.324Z,7.70
2017-10-30T19:32:22.547Z,7.60
2017-10-30T19:37:25.747Z,7.50
2017-10-30T19:42:28.996Z,7.50
2017-10-30T19:47:32.971Z,7.10
2017-10-30T19:52:36.187Z,7.00
2017-10-30T19:57:39.365Z,7.00
2017-10-30T20:02:42.579Z,7.00
2017-10-30T20:07:51.310Z,7.00
2017-10-30T20:12:54.521Z,7.00
2017-10-30T20:17:57.759Z,6.80
2017-10-30T20:23:00.988Z,6.70
2017-10-30T20:28:04.203Z,6.80
2017-10-30T20:33:08.170Z,6.80
2017-10-30T20:38:11.407Z,6.80
2017-10-30T20:43:14.623Z,6.70
2017-10-30T20:48:17.835Z,6.60
2017-10-30T20:53:21.824Z,6.30
2017-10-30T20:58:25.060Z,6.30
2017-10-30T21:03:28.276Z,6.30
2017-10-30T21:08:31.476Z,6.20
2017-10-30T21:13:34.692Z,6.10
2017-10-30T21:18:37.877Z,6.00
2017-10-30T21:23:41.107Z,5.90
2017-10-30T21:28:45.112Z,5.60
2017-10-30T21:33:48.289Z,5.60
2017-10-30T21:38:51.483Z,5.30
2017-10-30T21:43:54.771Z,5.30
2017-10-30T21:48:58.020Z,5.30
2017-10-30T21:54:01.214Z,5.30
2017-10-30T21:59:04.384Z,5.40
2017-10-30T22:04:08.426Z,5.20
2017-10-30T22:09:11.631Z,5.20
2017-10-30T22:14:15.604Z,4.90
2017-10-30T22:19:18.787Z,4.80
2017-10-30T22:24:21.997Z,4.80
2017-10-30T22:29:25.187Z,4.60
2017-10-30T22:34:28.373Z,4.40
2017-10-30T22:39:32.331Z,4.40
2017-10-30T22:44:35.555Z,4.50
2017-10-30T22:49:39.426Z,4.50
2017-10-30T22:54:42.655Z,4.50
2017-10-30T22:59:46.215Z,4.40
2017-10-30T23:04:49.569Z,4.40
2017-10-30T23:09:52.777Z,4.40
2017-10-30T23:14:55.980Z,4.20
2017-10-30T23:19:59.198Z,4.00
2017-10-30T23:25:02.406Z,3.70
2017-10-30T23:30:05.597Z,3.70
2017-10-30T23:35:08.923Z,3.50
2017-10-30T23:40:12.109Z,3.40
2017-10-30T23:45:15.309Z,3.50
2017-10-30T23:50:18.491Z,3.70
2017-10-30T23:55:21.706Z,3.70
